NV10 weather

Car Country Heliport
Henderson, Nevada, United States

Public forecast

Using degrees Fahrenheit for public forecast. Weather courtesy of forecast.io.

METAR (pilot weather report)

Closest report is Henderson Executive Airport, 10.1 nm (18.8 km) W. Retrieved 2019/03/23 15:56 UTC (16 minutes ago):

KHND 231556Z 21008KT 10SM CLR 14/01 A3008 RMK AO2 SLP182 T01440006 $

TAF (pilot weather forecast)

Closest forecast is Henderson Executive Airport, 10.1 nm (18.8 km) W. Retrieved 2019/03/23 12:22 UTC (4 hours ago):

TAF KHND 231120Z 2312/2412 18008KT P6SM FEW100 BKN200 FM231800 21014G24KT P6SM FEW100 SCT200 FM240500 21011KT P6SM FEW100